1858 Hurricane NOT_NAMED (1858263N25299)


IBTrACS version v04r00. Visit IBTrACS website for data access.
Please direct all questions to the IBTrACS Q and A forum

Storm track - Intensity - Wind Radii - Intensity Data - Source Data - All data

Summary Information

Storm ID 1858263N25299
Start Sep 19 12Z
Max Intensity 75 kt (Sep 24 18Z), 985 mb (Sep 23 06Z)
End Sep 25 18Z
ATCF IDs
Track status Best track data.

Storm track plot

Map of storm track

Intensity plots

Map of storm track

Radial wind information

No radial wind information for this storm


Position and Intensity Table

BASIN ISO_TIME_________ NATURE LAT LON MLC WIND MLC PRES
degrees north degrees east kts mb
NA 1858-09-19 12:00:00 TS 25.10 -61.20 30
NA 15:00:00 TS 25.31 -61.50 30
NA 18:00:00 TS 25.50 -61.80 30
NA 21:00:00 TS 25.66 -62.10 30
NA 1858-09-20 00:00:00 TS 25.80 -62.40 30
NA 03:00:00 TS 25.95 -62.70 32
NA 06:00:00 TS 26.10 -63.00 35
NA 09:00:00 TS 26.23 -63.29 40
NA 12:00:00 TS 26.40 -63.60 45
NA 15:00:00 TS 26.69 -63.98 47
NA 18:00:00 TS 27.00 -64.40 50
NA 21:00:00 TS 27.25 -64.80 52
NA 1858-09-21 00:00:00 TS 27.50 -65.20 55
NA 03:00:00 TS 27.77 -65.60 57
NA 06:00:00 TS 28.10 -66.00 60
NA 09:00:00 TS 28.57 -66.41 60
NA 12:00:00 TS 29.00 -66.80 60
NA 15:00:00 TS 29.19 -67.17 62
NA 18:00:00 TS 29.30 -67.50 65
NA 21:00:00 TS 29.45 -67.79 65
NA 1858-09-22 00:00:00 TS 29.60 -68.10 65
NA 03:00:00 TS 29.75 -68.51 65
NA 06:00:00 TS 29.90 -68.90 65
NA 09:00:00 TS 30.06 -69.20 65
NA 12:00:00 TS 30.20 -69.40 65
NA 15:00:00 TS 30.31 -69.50 65
NA 18:00:00 TS 30.40 -69.50 65
NA 21:00:00 TS 30.50 -69.43 67
NA 1858-09-23 00:00:00 TS 30.60 -69.30 70
NA 03:00:00 TS 30.70 -69.15 70
NA 06:00:00 TS 30.80 -69.00 70 985
NA 09:00:00 TS 30.85 -69.03 70
NA 12:00:00 TS 31.00 -68.80 70
NA 15:00:00 TS 31.41 -67.89 70
NA 18:00:00 TS 31.90 -66.70 70
NA 21:00:00 TS 32.20 -65.78 70
NA 1858-09-24 00:00:00 TS 32.70 -64.60 70
NA 03:00:00 TS 33.67 -62.70 70
NA 06:00:00 TS 34.80 -60.70 70
NA 09:00:00 TS 35.80 -59.27 70
NA 12:00:00 TS 36.80 -58.00 70
NA 15:00:00 TS 37.85 -56.52 72
NA 18:00:00 TS 38.80 -55.10 75
NA 21:00:00 TS 39.54 -53.91 75
NA 1858-09-25 00:00:00 TS 40.20 -52.80 75
NA 03:00:00 TS 40.90 -51.61 72
NA 06:00:00 TS 41.60 -50.40 70
NA 09:00:00 TS 42.30 -49.20 70
NA 12:00:00 ET 43.00 -48.00 70
NA 15:00:00 ET 43.70 -46.81 70
NA 18:00:00 ET 44.40 -45.60 70

Source Information

Agency Information
USA
TOKYO
CMA
HKO
NEWDELHI
REUNION
BOM
NADI
WELLINGTON
DS824
TD9636
TD9635
NEUMANN
MLC

All available IBTrACS Data

SEASON BASIN SUBBASIN ISO_TIME_________ NATURE LAT LON DIST2LAND LANDFALL IFLAG USA SSHS MLC LAT MLC LON MLC CLASS MLC WIND MLC PRES STORM SPEED STORM DIR
Year degrees north degrees east km km 1 degrees north degrees east kts mb kts degrees
1858 NA NA 1858-09-19 12:00:00 TS 25.10 -61.20 875 870 _____________O -1 25.10 -61.20 TD 30 7 308
1858 NA NA 15:00:00 TS 25.31 -61.50 879 879 _____________P -1 25.31 -61.50 TD 30 7 306
1858 NA NA 18:00:00 TS 25.50 -61.80 885 880 _____________O -1 25.50 -61.80 TD 30 6 303
1858 NA NA 21:00:00 TS 25.66 -62.10 892 883 _____________P -1 25.66 -62.10 TD 30 6 299
1858 NA NA 1858-09-20 00:00:00 TS 25.80 -62.40 890 886 _____________O -1 25.80 -62.40 TD 30 6 298
1858 NA NA 03:00:00 TS 25.95 -62.70 889 889 _____________P -1 25.95 -62.70 TD 32 6 299
1858 NA NA 06:00:00 TS 26.10 -63.00 901 898 _____________O -1 26.10 -63.00 TS 35 6 298
1858 NA NA 09:00:00 TS 26.23 -63.29 903 903 _____________P -1 26.23 -63.29 TS 40 6 299
1858 NA NA 12:00:00 TS 26.40 -63.60 917 915 _____________O -1 26.40 -63.60 TS 45 8 306
1858 NA NA 15:00:00 TS 26.69 -63.98 942 940 _____________P -1 26.69 -63.98 TS 47 9 310
1858 NA NA 18:00:00 TS 27.00 -64.40 969 967 _____________O -1 27.00 -64.40 TS 50 9 308
1858 NA NA 21:00:00 TS 27.25 -64.80 987 987 _____________P -1 27.25 -64.80 TS 52 9 305
1858 NA NA 1858-09-21 00:00:00 TS 27.50 -65.20 1007 1002 _____________O -1 27.50 -65.20 TS 55 9 306
1858 NA NA 03:00:00 TS 27.77 -65.60 1019 1015 _____________P -1 27.77 -65.60 TS 57 9 310
1858 NA NA 06:00:00 TS 28.10 -66.00 1033 1033 _____________O -1 28.10 -66.00 TS 60 11 318
1858 NA NA 09:00:00 TS 28.57 -66.41 1060 1054 _____________P -1 28.57 -66.41 TS 60 11 322
1858 NA NA 12:00:00 TS 29.00 -66.80 1071 1065 _____________O -1 29.00 -66.80 TS 60 9 313
1858 NA NA 15:00:00 TS 29.19 -67.17 1065 1035 _____________P -1 29.19 -67.17 TS 62 7 296
1858 NA NA 18:00:00 TS 29.30 -67.50 1035 1006 _____________O -1 29.30 -67.50 HU 65 6 295
1858 NA NA 21:00:00 TS 29.45 -67.79 1006 969 _____________P -1 29.45 -67.79 HU 65 6 300
1858 NA NA 1858-09-22 00:00:00 TS 29.60 -68.10 969 933 _____________O -1 29.60 -68.10 HU 65 7 296
1858 NA NA 03:00:00 TS 29.75 -68.51 925 889 _____________P -1 29.75 -68.51 HU 65 8 293
1858 NA NA 06:00:00 TS 29.90 -68.90 889 860 _____________O -1 29.90 -68.90 HU 65 7 297
1858 NA NA 09:00:00 TS 30.06 -69.20 852 831 _____________P -1 30.06 -69.20 HU 65 5 305
1858 NA NA 12:00:00 TS 30.20 -69.40 831 816 _____________O -1 30.20 -69.40 HU 65 4 314
1858 NA NA 15:00:00 TS 30.31 -69.50 816 809 _____________P -1 30.31 -69.50 HU 65 2 335
1858 NA NA 18:00:00 TS 30.40 -69.50 809 802 _____________O -1 30.40 -69.50 HU 65 2 20
1858 NA NA 21:00:00 TS 30.50 -69.43 809 802 _____________P -1 30.50 -69.43 HU 67 3 41
1858 NA NA 1858-09-23 00:00:00 TS 30.60 -69.30 810 810 _____________O -1 30.60 -69.30 HU 70 3 50
1858 NA NA 03:00:00 TS 30.70 -69.15 810 810 _____________P -1 30.70 -69.15 HU 70 3 53
1858 NA NA 06:00:00 TS 30.80 -69.00 819 819 _____________O -1 30.80 -69.00 HU 70 985 2 34
1858 NA NA 09:00:00 TS 30.85 -69.03 819 812 _____________P -1 30.85 -69.03 HU 70 3 41
1858 NA NA 12:00:00 TS 31.00 -68.80 819 818 _____________O -1 31.00 -68.80 HU 70 11 60
1858 NA NA 15:00:00 TS 31.41 -67.89 856 856 _____________P -1 31.41 -67.89 HU 70 20 63
1858 NA NA 18:00:00 TS 31.90 -66.70 919 919 _____________O -1 31.90 -66.70 HU 70 20 66
1858 NA NA 21:00:00 TS 32.20 -65.78 977 977 _____________P -1 32.20 -65.78 HU 70 19 66
1858 NA NA 1858-09-24 00:00:00 TS 32.70 -64.60 1057 1057 _____________O -1 32.70 -64.60 HU 70 30 61
1858 NA NA 03:00:00 TS 33.67 -62.70 1096 1049 _____________P -1 33.67 -62.70 HU 70 39 57
1858 NA NA 06:00:00 TS 34.80 -60.70 1045 1003 _____________O -1 34.80 -60.70 HU 70 35 53
1858 NA NA 09:00:00 TS 35.80 -59.27 997 970 _____________P -1 35.80 -59.27 HU 70 30 48
1858 NA NA 12:00:00 TS 36.80 -58.00 966 903 _____________O -1 36.80 -58.00 HU 70 30 47
1858 NA NA 15:00:00 TS 37.85 -56.52 907 861 _____________P -1 37.85 -56.52 HU 72 30 49
1858 NA NA 18:00:00 TS 38.80 -55.10 865 790 _____________O -1 38.80 -55.10 HU 75 27 50
1858 NA NA 21:00:00 TS 39.54 -53.91 789 711 _____________P -1 39.54 -53.91 HU 75 23 52
1858 NA NA 1858-09-25 00:00:00 TS 40.20 -52.80 712 644 _____________O -1 40.20 -52.80 HU 75 22 52
1858 NA NA 03:00:00 TS 40.90 -51.61 646 595 _____________P -1 40.90 -51.61 HU 72 23 52
1858 NA NA 06:00:00 TS 41.60 -50.40 598 568 _____________O -1 41.60 -50.40 HU 70 23 52
1858 NA NA 09:00:00 TS 42.30 -49.20 572 566 _____________P -1 42.30 -49.20 HU 70 23 52
1858 NA NA 12:00:00 ET 43.00 -48.00 571 569 _____________O -1 43.00 -48.00 EX 70 22 51
1858 NA NA 15:00:00 ET 43.70 -46.81 593 593 _____________P -1 43.70 -46.81 EX 70 22 51
1858 NA NA 18:00:00 ET 44.40 -45.60 632 _____________O -1 44.40 -45.60 EX 70 22 51